sensor_id;sensor_type;location;lat;lon;timestamp;P1;durP1;ratioP1;P2;durP2;ratioP2
11141;SDS011;5625;50.122;19.864;2023-05-10T00:00:30;6.50;;;4.90;;
11141;SDS011;5625;50.122;19.864;2023-05-10T00:02:58;9.27;;;5.63;;
11141;SDS011;5625;50.122;19.864;2023-05-10T00:05:26;6.20;;;5.20;;
11141;SDS011;5625;50.122;19.864;2023-05-10T00:07:54;6.60;;;5.10;;
11141;SDS011;5625;50.122;19.864;2023-05-10T00:10:23;6.33;;;5.10;;
11141;SDS011;5625;50.122;19.864;2023-05-10T00:12:51;7.37;;;4.63;;
11141;SDS011;5625;50.122;19.864;2023-05-10T00:15:21;6.10;;;5.43;;
11141;SDS011;5625;50.122;19.864;2023-05-10T00:17:49;5.60;;;4.53;;
11141;SDS011;5625;50.122;19.864;2023-05-10T00:20:17;6.10;;;4.77;;
11141;SDS011;5625;50.122;19.864;2023-05-10T00:22:45;7.13;;;5.33;;
11141;SDS011;5625;50.122;19.864;2023-05-10T00:25:13;7.13;;;5.40;;
11141;SDS011;5625;50.122;19.864;2023-05-10T00:27:41;6.10;;;5.50;;
11141;SDS011;5625;50.122;19.864;2023-05-10T00:30:10;7.93;;;5.33;;
11141;SDS011;5625;50.122;19.864;2023-05-10T00:32:42;9.17;;;5.47;;
11141;SDS011;5625;50.122;19.864;2023-05-10T00:35:10;6.47;;;5.03;;
11141;SDS011;5625;50.122;19.864;2023-05-10T00:37:38;6.60;;;4.80;;
11141;SDS011;5625;50.122;19.864;2023-05-10T00:40:07;5.17;;;4.53;;
11141;SDS011;5625;50.122;19.864;2023-05-10T00:42:35;7.33;;;5.10;;
11141;SDS011;5625;50.122;19.864;2023-05-10T00:45:03;6.33;;;5.00;;
11141;SDS011;5625;50.122;19.864;2023-05-10T00:47:33;7.90;;;5.10;;
11141;SDS011;5625;50.122;19.864;2023-05-10T00:50:03;8.60;;;5.40;;
11141;SDS011;5625;50.122;19.864;2023-05-10T00:52:34;5.80;;;4.70;;
11141;SDS011;5625;50.122;19.864;2023-05-10T00:55:02;5.10;;;4.57;;
11141;SDS011;5625;50.122;19.864;2023-05-10T00:57:31;5.60;;;5.00;;
11141;SDS011;5625;50.122;19.864;2023-05-10T01:00:00;7.87;;;5.07;;
11141;SDS011;5625;50.122;19.864;2023-05-10T01:02:33;6.73;;;5.17;;
11141;SDS011;5625;50.122;19.864;2023-05-10T01:05:02;5.87;;;5.27;;
11141;SDS011;5625;50.122;19.864;2023-05-10T01:07:32;7.47;;;4.97;;
11141;SDS011;5625;50.122;19.864;2023-05-10T01:10:00;6.43;;;5.33;;
11141;SDS011;5625;50.122;19.864;2023-05-10T01:12:28;5.37;;;4.80;;
11141;SDS011;5625;50.122;19.864;2023-05-10T01:14:56;5.93;;;4.83;;
11141;SDS011;5625;50.122;19.864;2023-05-10T01:17:24;7.27;;;5.47;;
11141;SDS011;5625;50.122;19.864;2023-05-10T01:19:53;7.63;;;5.50;;
11141;SDS011;5625;50.122;19.864;2023-05-10T01:22:30;6.43;;;5.00;;
11141;SDS011;5625;50.122;19.864;2023-05-10T01:31:18;6.27;;;5.67;;
11141;SDS011;5625;50.122;19.864;2023-05-10T01:34:05;5.20;;;4.70;;
11141;SDS011;5625;50.122;19.864;2023-05-10T01:36:38;5.77;;;5.00;;
11141;SDS011;5625;50.122;19.864;2023-05-10T01:39:11;5.87;;;5.33;;
11141;SDS011;5625;50.122;19.864;2023-05-10T01:41:45;6.80;;;5.30;;
11141;SDS011;5625;50.122;19.864;2023-05-10T01:44:20;5.43;;;4.90;;
11141;SDS011;5625;50.122;19.864;2023-05-10T01:46:57;7.77;;;5.13;;
11141;SDS011;5625;50.122;19.864;2023-05-10T01:49:34;6.50;;;5.23;;
11141;SDS011;5625;50.122;19.864;2023-05-10T01:52:08;5.33;;;4.83;;
11141;SDS011;5625;50.122;19.864;2023-05-10T01:54:41;6.43;;;4.90;;
11141;SDS011;5625;50.122;19.864;2023-05-10T01:57:13;6.87;;;5.20;;
11141;SDS011;5625;50.122;19.864;2023-05-10T01:59:43;6.13;;;4.87;;
11141;SDS011;5625;50.122;19.864;2023-05-10T02:02:17;6.93;;;5.10;;
11141;SDS011;5625;50.122;19.864;2023-05-10T02:04:48;4.90;;;4.40;;
11141;SDS011;5625;50.122;19.864;2023-05-10T02:07:17;5.87;;;4.47;;
11141;SDS011;5625;50.122;19.864;2023-05-10T02:09:47;6.27;;;5.33;;
11141;SDS011;5625;50.122;19.864;2023-05-10T02:12:15;5.30;;;4.80;;
11141;SDS011;5625;50.122;19.864;2023-05-10T02:14:45;5.40;;;4.90;;
11141;SDS011;5625;50.122;19.864;2023-05-10T02:17:14;6.73;;;4.60;;
11141;SDS011;5625;50.122;19.864;2023-05-10T02:19:44;5.57;;;4.73;;
11141;SDS011;5625;50.122;19.864;2023-05-10T02:22:15;5.40;;;4.67;;
11141;SDS011;5625;50.122;19.864;2023-05-10T02:24:45;6.87;;;5.10;;
11141;SDS011;5625;50.122;19.864;2023-05-10T02:27:14;12.07;;;5.43;;
11141;SDS011;5625;50.122;19.864;2023-05-10T02:29:44;6.50;;;4.40;;
11141;SDS011;5625;50.122;19.864;2023-05-10T02:32:14;5.73;;;4.83;;
11141;SDS011;5625;50.122;19.864;2023-05-10T02:34:44;7.50;;;5.13;;
11141;SDS011;5625;50.122;19.864;2023-05-10T02:37:20;5.60;;;4.77;;
11141;SDS011;5625;50.122;19.864;2023-05-10T02:39:49;5.43;;;4.90;;
11141;SDS011;5625;50.122;19.864;2023-05-10T02:42:22;5.80;;;4.67;;
11141;SDS011;5625;50.122;19.864;2023-05-10T02:44:59;6.27;;;4.70;;
11141;SDS011;5625;50.122;19.864;2023-05-10T02:47:28;7.00;;;5.17;;
11141;SDS011;5625;50.122;19.864;2023-05-10T02:49:56;7.57;;;5.50;;
11141;SDS011;5625;50.122;19.864;2023-05-10T02:52:27;6.43;;;4.83;;
11141;SDS011;5625;50.122;19.864;2023-05-10T02:55:04;5.97;;;4.90;;
11141;SDS011;5625;50.122;19.864;2023-05-10T02:57:37;6.40;;;5.37;;
11141;SDS011;5625;50.122;19.864;2023-05-10T03:00:09;5.30;;;4.83;;
11141;SDS011;5625;50.122;19.864;2023-05-10T03:02:38;5.67;;;4.83;;
11141;SDS011;5625;50.122;19.864;2023-05-10T03:05:06;5.57;;;4.97;;
11141;SDS011;5625;50.122;19.864;2023-05-10T03:07:36;5.23;;;4.73;;
11141;SDS011;5625;50.122;19.864;2023-05-10T03:10:05;7.07;;;5.10;;
11141;SDS011;5625;50.122;19.864;2023-05-10T03:12:39;6.13;;;4.73;;
11141;SDS011;5625;50.122;19.864;2023-05-10T03:15:18;5.60;;;4.57;;
11141;SDS011;5625;50.122;19.864;2023-05-10T03:17:54;7.23;;;5.20;;
11141;SDS011;5625;50.122;19.864;2023-05-10T03:20:24;7.73;;;4.80;;
11141;SDS011;5625;50.122;19.864;2023-05-10T03:22:59;6.00;;;5.40;;
11141;SDS011;5625;50.122;19.864;2023-05-10T03:25:31;6.33;;;4.73;;
11141;SDS011;5625;50.122;19.864;2023-05-10T03:27:59;6.67;;;4.80;;
11141;SDS011;5625;50.122;19.864;2023-05-10T03:30:28;6.93;;;5.20;;
11141;SDS011;5625;50.122;19.864;2023-05-10T03:32:57;8.07;;;5.30;;
11141;SDS011;5625;50.122;19.864;2023-05-10T03:35:26;5.90;;;5.03;;
11141;SDS011;5625;50.122;19.864;2023-05-10T03:37:56;5.93;;;5.13;;
11141;SDS011;5625;50.122;19.864;2023-05-10T03:40:24;6.50;;;5.20;;
11141;SDS011;5625;50.122;19.864;2023-05-10T03:42:52;5.33;;;4.40;;
11141;SDS011;5625;50.122;19.864;2023-05-10T03:45:20;6.70;;;5.40;;
11141;SDS011;5625;50.122;19.864;2023-05-10T03:47:49;6.83;;;5.20;;
11141;SDS011;5625;50.122;19.864;2023-05-10T03:50:17;7.80;;;5.33;;
11141;SDS011;5625;50.122;19.864;2023-05-10T03:52:45;5.50;;;4.87;;
11141;SDS011;5625;50.122;19.864;2023-05-10T03:55:14;6.80;;;4.93;;
11141;SDS011;5625;50.122;19.864;2023-05-10T03:57:43;6.80;;;4.87;;
11141;SDS011;5625;50.122;19.864;2023-05-10T04:00:13;5.70;;;4.93;;
11141;SDS011;5625;50.122;19.864;2023-05-10T04:02:41;8.20;;;5.77;;
11141;SDS011;5625;50.122;19.864;2023-05-10T04:05:11;6.13;;;4.70;;
11141;SDS011;5625;50.122;19.864;2023-05-10T04:07:39;6.47;;;4.70;;
11141;SDS011;5625;50.122;19.864;2023-05-10T04:10:08;8.67;;;5.57;;
11141;SDS011;5625;50.122;19.864;2023-05-10T04:12:37;6.50;;;5.10;;
11141;SDS011;5625;50.122;19.864;2023-05-10T04:15:06;5.60;;;4.60;;
11141;SDS011;5625;50.122;19.864;2023-05-10T04:17:34;7.07;;;5.07;;
11141;SDS011;5625;50.122;19.864;2023-05-10T04:20:04;5.93;;;5.33;;
11141;SDS011;5625;50.122;19.864;2023-05-10T04:22:33;5.83;;;5.23;;
11141;SDS011;5625;50.122;19.864;2023-05-10T04:25:01;7.00;;;5.10;;
11141;SDS011;5625;50.122;19.864;2023-05-10T04:27:29;6.73;;;4.70;;
11141;SDS011;5625;50.122;19.864;2023-05-10T04:29:59;5.80;;;5.20;;
11141;SDS011;5625;50.122;19.864;2023-05-10T04:32:27;9.47;;;5.00;;
11141;SDS011;5625;50.122;19.864;2023-05-10T04:34:55;6.53;;;5.87;;
11141;SDS011;5625;50.122;19.864;2023-05-10T04:37:23;7.50;;;5.70;;
11141;SDS011;5625;50.122;19.864;2023-05-10T04:39:51;7.53;;;5.50;;
11141;SDS011;5625;50.122;19.864;2023-05-10T04:42:19;7.50;;;5.37;;
11141;SDS011;5625;50.122;19.864;2023-05-10T04:44:47;9.30;;;5.40;;
11141;SDS011;5625;50.122;19.864;2023-05-10T04:47:17;7.57;;;5.30;;
11141;SDS011;5625;50.122;19.864;2023-05-10T04:49:45;5.43;;;4.90;;
11141;SDS011;5625;50.122;19.864;2023-05-10T04:52:13;10.33;;;5.57;;
11141;SDS011;5625;50.122;19.864;2023-05-10T04:54:43;7.43;;;4.77;;
11141;SDS011;5625;50.122;19.864;2023-05-10T04:57:11;6.37;;;5.07;;
11141;SDS011;5625;50.122;19.864;2023-05-10T04:59:39;6.07;;;4.43;;
11141;SDS011;5625;50.122;19.864;2023-05-10T05:02:07;9.40;;;5.20;;
11141;SDS011;5625;50.122;19.864;2023-05-10T05:04:37;6.97;;;5.17;;
11141;SDS011;5625;50.122;19.864;2023-05-10T05:07:05;5.00;;;4.50;;
11141;SDS011;5625;50.122;19.864;2023-05-10T05:09:33;4.73;;;4.23;;
11141;SDS011;5625;50.122;19.864;2023-05-10T05:12:01;6.30;;;4.67;;
11141;SDS011;5625;50.122;19.864;2023-05-10T05:14:29;5.70;;;4.47;;
11141;SDS011;5625;50.122;19.864;2023-05-10T05:16:57;7.03;;;4.33;;
11141;SDS011;5625;50.122;19.864;2023-05-10T05:19:25;6.90;;;4.70;;
11141;SDS011;5625;50.122;19.864;2023-05-10T05:21:55;6.80;;;4.47;;
11141;SDS011;5625;50.122;19.864;2023-05-10T05:24:23;7.07;;;5.10;;
11141;SDS011;5625;50.122;19.864;2023-05-10T05:26:51;6.97;;;4.40;;
11141;SDS011;5625;50.122;19.864;2023-05-10T05:29:19;6.70;;;4.80;;
11141;SDS011;5625;50.122;19.864;2023-05-10T05:31:47;5.47;;;4.77;;
11141;SDS011;5625;50.122;19.864;2023-05-10T05:34:15;4.90;;;4.50;;
11141;SDS011;5625;50.122;19.864;2023-05-10T05:36:43;6.97;;;4.60;;
11141;SDS011;5625;50.122;19.864;2023-05-10T05:39:12;5.40;;;4.53;;
11141;SDS011;5625;50.122;19.864;2023-05-10T05:41:40;7.60;;;4.43;;
11141;SDS011;5625;50.122;19.864;2023-05-10T05:44:08;7.53;;;4.43;;
11141;SDS011;5625;50.122;19.864;2023-05-10T05:46:36;5.47;;;4.63;;
11141;SDS011;5625;50.122;19.864;2023-05-10T05:49:04;6.20;;;3.93;;
11141;SDS011;5625;50.122;19.864;2023-05-10T05:51:32;6.43;;;4.30;;
11141;SDS011;5625;50.122;19.864;2023-05-10T05:54:04;5.30;;;4.20;;
11141;SDS011;5625;50.122;19.864;2023-05-10T05:56:34;5.40;;;4.40;;
11141;SDS011;5625;50.122;19.864;2023-05-10T05:59:02;5.53;;;3.80;;
11141;SDS011;5625;50.122;19.864;2023-05-10T06:01:30;5.63;;;4.27;;
11141;SDS011;5625;50.122;19.864;2023-05-10T06:03:58;5.27;;;4.57;;
11141;SDS011;5625;50.122;19.864;2023-05-10T06:06:26;6.73;;;3.97;;
11141;SDS011;5625;50.122;19.864;2023-05-10T06:08:54;7.10;;;4.43;;
11141;SDS011;5625;50.122;19.864;2023-05-10T06:11:22;5.97;;;3.70;;
11141;SDS011;5625;50.122;19.864;2023-05-10T06:13:54;5.90;;;4.07;;
11141;SDS011;5625;50.122;19.864;2023-05-10T06:16:22;5.63;;;4.30;;
11141;SDS011;5625;50.122;19.864;2023-05-10T06:18:50;6.67;;;4.13;;
11141;SDS011;5625;50.122;19.864;2023-05-10T06:21:19;5.70;;;3.60;;
11141;SDS011;5625;50.122;19.864;2023-05-10T06:23:49;6.30;;;4.10;;
11141;SDS011;5625;50.122;19.864;2023-05-10T06:26:17;6.87;;;3.87;;
11141;SDS011;5625;50.122;19.864;2023-05-10T06:28:47;5.63;;;4.00;;
11141;SDS011;5625;50.122;19.864;2023-05-10T06:31:16;6.80;;;4.13;;
11141;SDS011;5625;50.122;19.864;2023-05-10T06:33:44;4.47;;;3.50;;
11141;SDS011;5625;50.122;19.864;2023-05-10T06:36:13;7.47;;;3.77;;
11141;SDS011;5625;50.122;19.864;2023-05-10T06:38:41;6.30;;;3.47;;
11141;SDS011;5625;50.122;19.864;2023-05-10T06:41:10;6.47;;;3.70;;
11141;SDS011;5625;50.122;19.864;2023-05-10T06:43:38;4.53;;;3.87;;
11141;SDS011;5625;50.122;19.864;2023-05-10T06:46:07;7.50;;;3.93;;
11141;SDS011;5625;50.122;19.864;2023-05-10T06:48:37;6.63;;;3.60;;
11141;SDS011;5625;50.122;19.864;2023-05-10T06:51:05;4.30;;;3.30;;
11141;SDS011;5625;50.122;19.864;2023-05-10T06:56:28;7.50;;;3.77;;
11141;SDS011;5625;50.122;19.864;2023-05-10T06:58:56;5.03;;;3.67;;
11141;SDS011;5625;50.122;19.864;2023-05-10T07:01:24;6.53;;;3.50;;
11141;SDS011;5625;50.122;19.864;2023-05-10T07:03:54;5.83;;;3.47;;
11141;SDS011;5625;50.122;19.864;2023-05-10T07:06:25;8.97;;;4.50;;
11141;SDS011;5625;50.122;19.864;2023-05-10T07:08:59;8.47;;;3.50;;
11141;SDS011;5625;50.122;19.864;2023-05-10T07:11:29;5.30;;;3.87;;
11141;SDS011;5625;50.122;19.864;2023-05-10T07:13:57;5.23;;;3.70;;
11141;SDS011;5625;50.122;19.864;2023-05-10T07:16:25;7.40;;;3.73;;
11141;SDS011;5625;50.122;19.864;2023-05-10T07:18:55;6.60;;;3.50;;
11141;SDS011;5625;50.122;19.864;2023-05-10T07:21:23;4.67;;;3.43;;
11141;SDS011;5625;50.122;19.864;2023-05-10T07:23:54;4.73;;;3.57;;
11141;SDS011;5625;50.122;19.864;2023-05-10T07:26:22;5.80;;;3.27;;
11141;SDS011;5625;50.122;19.864;2023-05-10T07:28:51;4.50;;;3.60;;
11141;SDS011;5625;50.122;19.864;2023-05-10T07:31:19;4.67;;;3.60;;
11141;SDS011;5625;50.122;19.864;2023-05-10T07:33:47;6.07;;;3.90;;
11141;SDS011;5625;50.122;19.864;2023-05-10T07:36:16;7.37;;;3.80;;
11141;SDS011;5625;50.122;19.864;2023-05-10T07:38:44;5.87;;;3.80;;
11141;SDS011;5625;50.122;19.864;2023-05-10T07:41:12;9.37;;;3.87;;
11141;SDS011;5625;50.122;19.864;2023-05-10T07:43:40;9.00;;;3.70;;
11141;SDS011;5625;50.122;19.864;2023-05-10T07:46:08;6.90;;;3.07;;
11141;SDS011;5625;50.122;19.864;2023-05-10T07:48:37;6.23;;;3.43;;
11141;SDS011;5625;50.122;19.864;2023-05-10T07:51:05;5.20;;;3.03;;
11141;SDS011;5625;50.122;19.864;2023-05-10T07:53:37;7.27;;;3.57;;
11141;SDS011;5625;50.122;19.864;2023-05-10T07:56:19;6.70;;;3.67;;
11141;SDS011;5625;50.122;19.864;2023-05-10T07:58:49;5.50;;;3.40;;
11141;SDS011;5625;50.122;19.864;2023-05-10T08:01:17;7.33;;;3.30;;
11141;SDS011;5625;50.122;19.864;2023-05-10T08:03:45;6.37;;;3.27;;
11141;SDS011;5625;50.122;19.864;2023-05-10T08:06:13;6.83;;;3.67;;
11141;SDS011;5625;50.122;19.864;2023-05-10T08:08:43;3.67;;;3.30;;
11141;SDS011;5625;50.122;19.864;2023-05-10T08:11:15;4.63;;;3.47;;
11141;SDS011;5625;50.122;19.864;2023-05-10T08:13:43;10.30;;;3.83;;
11141;SDS011;5625;50.122;19.864;2023-05-10T08:16:12;7.67;;;3.17;;
11141;SDS011;5625;50.122;19.864;2023-05-10T08:18:40;7.83;;;3.00;;
11141;SDS011;5625;50.122;19.864;2023-05-10T08:21:08;5.73;;;3.30;;
11141;SDS011;5625;50.122;19.864;2023-05-10T08:23:37;7.77;;;3.10;;
11141;SDS011;5625;50.122;19.864;2023-05-10T08:26:06;7.03;;;3.07;;
11141;SDS011;5625;50.122;19.864;2023-05-10T08:28:34;7.17;;;3.30;;
11141;SDS011;5625;50.122;19.864;2023-05-10T08:31:02;4.10;;;2.90;;
11141;SDS011;5625;50.122;19.864;2023-05-10T08:33:31;9.73;;;2.60;;
11141;SDS011;5625;50.122;19.864;2023-05-10T08:35:59;4.03;;;2.50;;
11141;SDS011;5625;50.122;19.864;2023-05-10T08:38:27;8.90;;;2.80;;
11141;SDS011;5625;50.122;19.864;2023-05-10T08:40:55;5.13;;;2.70;;
11141;SDS011;5625;50.122;19.864;2023-05-10T08:43:27;5.13;;;2.20;;
11141;SDS011;5625;50.122;19.864;2023-05-10T08:45:56;4.63;;;3.00;;
11141;SDS011;5625;50.122;19.864;2023-05-10T08:48:29;6.60;;;2.57;;
11141;SDS011;5625;50.122;19.864;2023-05-10T08:50:58;2.70;;;2.50;;
11141;SDS011;5625;50.122;19.864;2023-05-10T08:53:28;7.40;;;2.63;;
11141;SDS011;5625;50.122;19.864;2023-05-10T08:55:58;4.03;;;2.40;;
11141;SDS011;5625;50.122;19.864;2023-05-10T08:58:29;7.53;;;2.47;;
11141;SDS011;5625;50.122;19.864;2023-05-10T09:00:58;3.93;;;2.50;;
11141;SDS011;5625;50.122;19.864;2023-05-10T09:03:28;4.03;;;2.40;;
11141;SDS011;5625;50.122;19.864;2023-05-10T09:05:57;6.13;;;2.40;;
11141;SDS011;5625;50.122;19.864;2023-05-10T09:08:25;4.63;;;2.27;;
11141;SDS011;5625;50.122;19.864;2023-05-10T09:10:54;5.00;;;2.53;;
11141;SDS011;5625;50.122;19.864;2023-05-10T09:13:23;3.83;;;2.50;;
11141;SDS011;5625;50.122;19.864;2023-05-10T09:15:53;8.57;;;2.70;;
11141;SDS011;5625;50.122;19.864;2023-05-10T09:18:25;3.10;;;1.90;;
11141;SDS011;5625;50.122;19.864;2023-05-10T09:20:53;6.00;;;2.00;;
11141;SDS011;5625;50.122;19.864;2023-05-10T09:23:22;3.00;;;2.00;;
11141;SDS011;5625;50.122;19.864;2023-05-10T09:26:01;3.30;;;2.07;;
11141;SDS011;5625;50.122;19.864;2023-05-10T09:28:33;3.70;;;2.50;;
11141;SDS011;5625;50.122;19.864;2023-05-10T09:31:03;4.23;;;2.20;;
11141;SDS011;5625;50.122;19.864;2023-05-10T09:33:33;6.23;;;2.10;;
11141;SDS011;5625;50.122;19.864;2023-05-10T09:36:11;2.80;;;2.40;;
11141;SDS011;5625;50.122;19.864;2023-05-10T09:38:46;3.83;;;2.30;;
11141;SDS011;5625;50.122;19.864;2023-05-10T09:41:15;3.50;;;1.97;;
11141;SDS011;5625;50.122;19.864;2023-05-10T09:43:44;3.13;;;1.80;;
11141;SDS011;5625;50.122;19.864;2023-05-10T09:46:14;2.53;;;1.80;;
11141;SDS011;5625;50.122;19.864;2023-05-10T09:48:44;5.37;;;1.90;;
11141;SDS011;5625;50.122;19.864;2023-05-10T09:51:19;4.30;;;2.10;;
11141;SDS011;5625;50.122;19.864;2023-05-10T09:53:50;6.77;;;2.30;;
11141;SDS011;5625;50.122;19.864;2023-05-10T09:56:37;8.73;;;2.00;;
11141;SDS011;5625;50.122;19.864;2023-05-10T09:59:07;6.17;;;1.90;;
11141;SDS011;5625;50.122;19.864;2023-05-10T10:01:38;9.63;;;2.03;;
11141;SDS011;5625;50.122;19.864;2023-05-10T10:04:10;7.57;;;2.20;;
11141;SDS011;5625;50.122;19.864;2023-05-10T10:06:38;5.67;;;1.80;;
11141;SDS011;5625;50.122;19.864;2023-05-10T10:09:07;2.93;;;1.97;;
11141;SDS011;5625;50.122;19.864;2023-05-10T10:11:36;7.80;;;2.40;;
11141;SDS011;5625;50.122;19.864;2023-05-10T10:14:04;9.43;;;2.03;;
11141;SDS011;5625;50.122;19.864;2023-05-10T10:16:32;9.33;;;2.07;;
11141;SDS011;5625;50.122;19.864;2023-05-10T10:19:02;4.40;;;2.00;;
11141;SDS011;5625;50.122;19.864;2023-05-10T10:21:31;11.67;;;2.23;;
11141;SDS011;5625;50.122;19.864;2023-05-10T10:23:59;5.90;;;1.60;;
11141;SDS011;5625;50.122;19.864;2023-05-10T10:26:32;6.53;;;2.00;;
11141;SDS011;5625;50.122;19.864;2023-05-10T10:29:04;5.67;;;1.97;;
11141;SDS011;5625;50.122;19.864;2023-05-10T10:31:40;22.53;;;2.67;;
11141;SDS011;5625;50.122;19.864;2023-05-10T10:34:20;13.00;;;2.03;;
11141;SDS011;5625;50.122;19.864;2023-05-10T10:36:53;4.77;;;1.60;;
11141;SDS011;5625;50.122;19.864;2023-05-10T10:39:22;3.47;;;1.70;;
11141;SDS011;5625;50.122;19.864;2023-05-10T10:41:52;9.73;;;1.80;;
11141;SDS011;5625;50.122;19.864;2023-05-10T10:47:23;4.57;;;1.60;;
11141;SDS011;5625;50.122;19.864;2023-05-10T10:50:03;4.83;;;1.40;;
11141;SDS011;5625;50.122;19.864;2023-05-10T10:52:33;4.77;;;1.80;;
11141;SDS011;5625;50.122;19.864;2023-05-10T10:55:03;5.87;;;1.70;;
11141;SDS011;5625;50.122;19.864;2023-05-10T10:57:43;3.83;;;1.60;;
11141;SDS011;5625;50.122;19.864;2023-05-10T11:00:20;1.73;;;1.50;;
11141;SDS011;5625;50.122;19.864;2023-05-10T11:02:50;1.90;;;1.60;;
11141;SDS011;5625;50.122;19.864;2023-05-10T11:05:33;3.30;;;1.90;;
11141;SDS011;5625;50.122;19.864;2023-05-10T11:08:10;1.53;;;1.30;;
11141;SDS011;5625;50.122;19.864;2023-05-10T11:10:40;2.27;;;1.63;;
11141;SDS011;5625;50.122;19.864;2023-05-10T11:13:27;4.20;;;1.50;;
11141;SDS011;5625;50.122;19.864;2023-05-10T11:15:57;3.13;;;1.40;;
11141;SDS011;5625;50.122;19.864;2023-05-10T11:18:26;2.90;;;1.40;;
11141;SDS011;5625;50.122;19.864;2023-05-10T11:20:59;2.10;;;1.20;;
11141;SDS011;5625;50.122;19.864;2023-05-10T11:23:29;1.40;;;1.30;;
11141;SDS011;5625;50.122;19.864;2023-05-10T11:25:58;2.37;;;1.40;;
11141;SDS011;5625;50.122;19.864;2023-05-10T11:28:27;4.10;;;1.67;;
11141;SDS011;5625;50.122;19.864;2023-05-10T11:30:55;4.00;;;1.77;;
11141;SDS011;5625;50.122;19.864;2023-05-10T11:33:24;5.80;;;1.80;;
11141;SDS011;5625;50.122;19.864;2023-05-10T11:35:52;11.73;;;2.20;;
11141;SDS011;5625;50.122;19.864;2023-05-10T11:38:21;4.20;;;1.60;;
11141;SDS011;5625;50.122;19.864;2023-05-10T11:40:50;3.70;;;1.37;;
11141;SDS011;5625;50.122;19.864;2023-05-10T11:43:23;3.37;;;1.40;;
11141;SDS011;5625;50.122;19.864;2023-05-10T11:45:51;2.50;;;1.20;;
11141;SDS011;5625;50.122;19.864;2023-05-10T11:48:19;2.50;;;1.03;;
11141;SDS011;5625;50.122;19.864;2023-05-10T11:50:50;2.43;;;1.50;;
11141;SDS011;5625;50.122;19.864;2023-05-10T11:53:19;4.20;;;1.50;;
11141;SDS011;5625;50.122;19.864;2023-05-10T11:55:51;3.27;;;1.37;;
11141;SDS011;5625;50.122;19.864;2023-05-10T11:58:19;4.13;;;1.30;;
11141;SDS011;5625;50.122;19.864;2023-05-10T12:00:49;3.90;;;1.50;;
11141;SDS011;5625;50.122;19.864;2023-05-10T12:03:18;2.47;;;1.60;;
11141;SDS011;5625;50.122;19.864;2023-05-10T12:05:47;5.63;;;1.80;;
11141;SDS011;5625;50.122;19.864;2023-05-10T12:08:21;4.70;;;1.80;;
11141;SDS011;5625;50.122;19.864;2023-05-10T12:10:51;2.63;;;1.80;;
11141;SDS011;5625;50.122;19.864;2023-05-10T12:13:31;6.40;;;1.90;;
11141;SDS011;5625;50.122;19.864;2023-05-10T12:15:59;3.03;;;1.50;;
11141;SDS011;5625;50.122;19.864;2023-05-10T12:18:39;2.30;;;1.60;;
11141;SDS011;5625;50.122;19.864;2023-05-10T12:21:11;2.03;;;1.80;;
11141;SDS011;5625;50.122;19.864;2023-05-10T12:23:39;5.43;;;1.97;;
11141;SDS011;5625;50.122;19.864;2023-05-10T12:26:12;4.70;;;1.63;;
11141;SDS011;5625;50.122;19.864;2023-05-10T12:28:40;5.33;;;1.60;;
11141;SDS011;5625;50.122;19.864;2023-05-10T12:31:08;4.47;;;1.60;;
11141;SDS011;5625;50.122;19.864;2023-05-10T12:33:37;4.50;;;1.73;;
11141;SDS011;5625;50.122;19.864;2023-05-10T12:36:08;3.63;;;1.57;;
11141;SDS011;5625;50.122;19.864;2023-05-10T12:38:37;1.67;;;1.50;;
11141;SDS011;5625;50.122;19.864;2023-05-10T12:41:06;5.07;;;1.90;;
11141;SDS011;5625;50.122;19.864;2023-05-10T12:43:37;6.50;;;1.50;;
11141;SDS011;5625;50.122;19.864;2023-05-10T12:46:08;4.00;;;1.70;;
11141;SDS011;5625;50.122;19.864;2023-05-10T12:48:37;15.37;;;2.50;;
11141;SDS011;5625;50.122;19.864;2023-05-10T12:51:06;8.90;;;2.10;;
11141;SDS011;5625;50.122;19.864;2023-05-10T12:53:35;9.27;;;2.27;;
11141;SDS011;5625;50.122;19.864;2023-05-10T12:56:07;3.83;;;1.73;;
11141;SDS011;5625;50.122;19.864;2023-05-10T12:58:35;7.13;;;1.67;;
11141;SDS011;5625;50.122;19.864;2023-05-10T13:01:05;3.77;;;1.67;;
11141;SDS011;5625;50.122;19.864;2023-05-10T13:03:34;5.33;;;1.73;;
11141;SDS011;5625;50.122;19.864;2023-05-10T13:06:03;1.97;;;1.60;;
11141;SDS011;5625;50.122;19.864;2023-05-10T13:08:31;4.23;;;1.50;;
11141;SDS011;5625;50.122;19.864;2023-05-10T13:11:00;2.10;;;1.70;;
11141;SDS011;5625;50.122;19.864;2023-05-10T13:13:28;4.97;;;1.77;;
11141;SDS011;5625;50.122;19.864;2023-05-10T13:15:57;3.63;;;1.67;;
11141;SDS011;5625;50.122;19.864;2023-05-10T13:18:25;3.60;;;1.50;;
11141;SDS011;5625;50.122;19.864;2023-05-10T13:20:54;2.93;;;1.83;;
11141;SDS011;5625;50.122;19.864;2023-05-10T13:23:22;5.77;;;1.60;;
11141;SDS011;5625;50.122;19.864;2023-05-10T13:25:50;3.07;;;1.97;;
11141;SDS011;5625;50.122;19.864;2023-05-10T13:28:18;4.93;;;1.80;;
11141;SDS011;5625;50.122;19.864;2023-05-10T13:30:46;4.33;;;1.47;;
11141;SDS011;5625;50.122;19.864;2023-05-10T13:33:15;12.23;;;1.80;;
11141;SDS011;5625;50.122;19.864;2023-05-10T13:35:43;6.53;;;1.90;;
11141;SDS011;5625;50.122;19.864;2023-05-10T13:38:12;6.80;;;1.90;;
11141;SDS011;5625;50.122;19.864;2023-05-10T13:40:40;3.07;;;1.50;;
11141;SDS011;5625;50.122;19.864;2023-05-10T13:43:09;3.70;;;1.60;;
11141;SDS011;5625;50.122;19.864;2023-05-10T13:45:38;6.10;;;1.77;;
11141;SDS011;5625;50.122;19.864;2023-05-10T13:48:06;6.80;;;1.63;;
11141;SDS011;5625;50.122;19.864;2023-05-10T13:50:35;2.97;;;1.70;;
11141;SDS011;5625;50.122;19.864;2023-05-10T13:53:04;13.93;;;2.77;;
11141;SDS011;5625;50.122;19.864;2023-05-10T13:55:33;4.53;;;2.10;;
11141;SDS011;5625;50.122;19.864;2023-05-10T13:58:18;5.40;;;1.87;;
11141;SDS011;5625;50.122;19.864;2023-05-10T14:00:47;2.00;;;1.70;;
11141;SDS011;5625;50.122;19.864;2023-05-10T14:03:15;4.23;;;1.67;;
11141;SDS011;5625;50.122;19.864;2023-05-10T14:05:45;2.80;;;1.40;;
11141;SDS011;5625;50.122;19.864;2023-05-10T14:08:13;7.47;;;1.90;;
11141;SDS011;5625;50.122;19.864;2023-05-10T14:10:42;5.10;;;1.50;;
11141;SDS011;5625;50.122;19.864;2023-05-10T14:13:10;4.93;;;1.70;;
11141;SDS011;5625;50.122;19.864;2023-05-10T14:15:38;4.80;;;1.60;;
11141;SDS011;5625;50.122;19.864;2023-05-10T14:18:06;2.80;;;1.60;;
11141;SDS011;5625;50.122;19.864;2023-05-10T14:20:34;2.43;;;1.70;;
11141;SDS011;5625;50.122;19.864;2023-05-10T14:23:04;4.23;;;1.87;;
11141;SDS011;5625;50.122;19.864;2023-05-10T14:25:34;5.80;;;1.90;;
11141;SDS011;5625;50.122;19.864;2023-05-10T14:28:04;5.90;;;2.00;;
11141;SDS011;5625;50.122;19.864;2023-05-10T14:30:32;5.93;;;2.30;;
11141;SDS011;5625;50.122;19.864;2023-05-10T14:33:02;3.67;;;1.90;;
11141;SDS011;5625;50.122;19.864;2023-05-10T14:35:30;2.30;;;1.80;;
11141;SDS011;5625;50.122;19.864;2023-05-10T14:38:01;10.47;;;2.10;;
11141;SDS011;5625;50.122;19.864;2023-05-10T14:40:30;4.13;;;1.60;;
11141;SDS011;5625;50.122;19.864;2023-05-10T14:43:00;2.07;;;1.63;;
11141;SDS011;5625;50.122;19.864;2023-05-10T14:45:28;6.43;;;1.90;;
11141;SDS011;5625;50.122;19.864;2023-05-10T14:47:57;7.00;;;1.97;;
11141;SDS011;5625;50.122;19.864;2023-05-10T14:50:25;2.57;;;1.40;;
11141;SDS011;5625;50.122;19.864;2023-05-10T14:53:02;1.93;;;1.67;;
11141;SDS011;5625;50.122;19.864;2023-05-10T14:55:32;1.93;;;1.60;;
11141;SDS011;5625;50.122;19.864;2023-05-10T14:58:04;3.07;;;1.50;;
11141;SDS011;5625;50.122;19.864;2023-05-10T15:00:32;3.80;;;1.77;;
11141;SDS011;5625;50.122;19.864;2023-05-10T15:03:04;4.40;;;1.50;;
11141;SDS011;5625;50.122;19.864;2023-05-10T15:05:33;4.10;;;1.50;;
11141;SDS011;5625;50.122;19.864;2023-05-10T15:08:03;5.43;;;1.70;;
11141;SDS011;5625;50.122;19.864;2023-05-10T15:10:33;3.97;;;1.50;;
11141;SDS011;5625;50.122;19.864;2023-05-10T15:13:03;3.23;;;1.40;;
11141;SDS011;5625;50.122;19.864;2023-05-10T15:15:31;2.50;;;1.40;;